createdAt,value
2018-06-29T00:03:06.869Z,15.10
2018-06-29T00:08:36.046Z,15.10
2018-06-29T00:14:05.281Z,15.10
2018-06-29T00:19:34.474Z,15.10
2018-06-29T00:25:03.723Z,15.10
2018-06-29T00:30:32.953Z,15.10
2018-06-29T00:36:02.176Z,15.10
2018-06-29T00:41:31.396Z,15.10
2018-06-29T00:47:00.635Z,15.10
2018-06-29T00:52:29.888Z,15.10
2018-06-29T00:57:59.193Z,15.10
2018-06-29T01:03:28.394Z,15.10
2018-06-29T01:08:57.669Z,15.10
2018-06-29T01:14:26.858Z,15.10
2018-06-29T01:19:56.074Z,15.10
2018-06-29T01:25:25.286Z,15.10
2018-06-29T01:30:54.483Z,15.10
2018-06-29T01:36:23.861Z,15.10
2018-06-29T01:41:53.101Z,15.10
2018-06-29T01:47:22.368Z,15.10
2018-06-29T01:52:51.539Z,15.10
2018-06-29T01:58:20.765Z,15.10
2018-06-29T02:03:50.018Z,15.10
2018-06-29T02:09:19.253Z,15.10
2018-06-29T02:14:48.523Z,15.10
2018-06-29T02:20:17.888Z,15.10
2018-06-29T02:25:47.299Z,15.10
2018-06-29T02:31:16.531Z,15.10
2018-06-29T02:36:45.790Z,15.10
2018-06-29T02:42:15.209Z,15.10
2018-06-29T02:47:44.533Z,15.00
2018-06-29T02:53:13.824Z,15.00
2018-06-29T02:58:42.794Z,15.00
2018-06-29T03:04:12.025Z,15.00
2018-06-29T03:09:41.221Z,15.00
2018-06-29T03:15:10.417Z,15.00
2018-06-29T03:20:39.909Z,15.00
2018-06-29T03:26:09.178Z,15.00
2018-06-29T03:31:38.445Z,15.00
2018-06-29T03:37:07.825Z,15.00
2018-06-29T03:42:37.147Z,15.00
2018-06-29T03:48:06.412Z,15.00
2018-06-29T03:53:35.632Z,15.00
2018-06-29T03:59:04.867Z,15.00
2018-06-29T04:04:34.059Z,15.00
2018-06-29T04:10:03.276Z,15.00
2018-06-29T04:15:32.473Z,15.00
2018-06-29T04:21:01.741Z,15.00
2018-06-29T04:26:31.679Z,15.00
2018-06-29T04:32:00.875Z,15.00
2018-06-29T04:37:43.957Z,15.00
2018-06-29T04:43:13.330Z,15.00
2018-06-29T04:48:42.599Z,15.00
2018-06-29T04:54:11.837Z,15.00
2018-06-29T04:59:41.074Z,15.00
2018-06-29T05:05:10.293Z,15.00
2018-06-29T05:10:39.541Z,15.00
2018-06-29T05:16:08.757Z,15.00
2018-06-29T05:21:37.978Z,15.00
2018-06-29T05:27:07.245Z,15.00
2018-06-29T05:32:36.509Z,15.00
2018-06-29T05:38:06.067Z,15.10
2018-06-29T05:43:35.349Z,15.10
2018-06-29T05:49:04.742Z,15.10
2018-06-29T05:54:33.965Z,15.10
2018-06-29T06:00:03.185Z,15.20
2018-06-29T06:05:32.429Z,15.20
2018-06-29T06:11:01.714Z,15.20
2018-06-29T06:16:30.925Z,15.30
2018-06-29T06:22:00.186Z,15.30
2018-06-29T06:27:29.472Z,15.40
2018-06-29T06:32:58.708Z,15.30
2018-06-29T06:38:27.878Z,15.30
2018-06-29T06:43:57.079Z,15.30
2018-06-29T06:49:26.266Z,15.40
2018-06-29T06:54:55.464Z,15.40
2018-06-29T07:00:24.682Z,15.40
2018-06-29T07:05:53.893Z,15.40
2018-06-29T07:11:23.125Z,15.40
2018-06-29T07:16:52.348Z,15.40
2018-06-29T07:22:21.584Z,15.40
2018-06-29T07:27:50.816Z,15.40
2018-06-29T07:33:20.082Z,15.40
2018-06-29T07:38:49.323Z,15.50
2018-06-29T07:44:18.573Z,15.50
2018-06-29T07:49:47.824Z,15.50
2018-06-29T07:55:17.069Z,15.60
2018-06-29T08:00:46.268Z,15.70
2018-06-29T08:06:15.522Z,15.80
2018-06-29T08:11:44.841Z,15.80
2018-06-29T08:17:14.152Z,15.90
2018-06-29T08:22:43.102Z,15.90
2018-06-29T08:28:12.348Z,15.90
2018-06-29T08:33:41.539Z,16.00
2018-06-29T08:39:10.776Z,16.20
2018-06-29T08:44:40.015Z,16.30
2018-06-29T08:50:09.504Z,16.30
2018-06-29T08:55:38.715Z,16.40
2018-06-29T09:01:07.962Z,16.50
2018-06-29T09:06:37.201Z,16.50
2018-06-29T09:12:06.807Z,16.70
2018-06-29T09:17:36.017Z,16.80
2018-06-29T09:23:05.516Z,16.90
2018-06-29T09:28:34.807Z,17.00
2018-06-29T09:34:04.116Z,16.90
2018-06-29T09:39:33.347Z,16.90
2018-06-29T09:45:02.550Z,16.90
2018-06-29T09:50:31.776Z,17.00
2018-06-29T09:56:01.009Z,17.10
2018-06-29T10:01:30.574Z,17.20
2018-06-29T10:06:59.506Z,17.20
2018-06-29T10:12:28.761Z,17.30
2018-06-29T10:17:57.977Z,17.40
2018-06-29T10:23:27.199Z,17.30
2018-06-29T10:28:56.152Z,17.40
2018-06-29T10:34:25.322Z,17.50
2018-06-29T10:39:54.532Z,17.50
2018-06-29T10:45:23.753Z,17.50
2018-06-29T10:50:52.967Z,17.50
2018-06-29T10:56:22.195Z,17.50
2018-06-29T11:01:51.427Z,17.50
2018-06-29T11:07:20.657Z,17.60
2018-06-29T11:12:49.943Z,18.10
2018-06-29T11:18:19.759Z,18.50
2018-06-29T11:23:49.060Z,19.00
2018-06-29T11:29:18.308Z,19.50
2018-06-29T11:34:47.639Z,19.90
2018-06-29T11:40:16.923Z,20.00
2018-06-29T11:45:46.481Z,20.10
2018-06-29T11:51:15.786Z,20.10
2018-06-29T11:56:45.754Z,20.10
2018-06-29T12:02:15.968Z,20.00
2018-06-29T12:07:45.547Z,20.10
2018-06-29T12:13:14.813Z,20.30
2018-06-29T12:18:44.156Z,20.70
2018-06-29T12:24:13.473Z,20.90
2018-06-29T12:29:42.933Z,20.80
2018-06-29T12:35:12.385Z,20.70
2018-06-29T12:40:41.677Z,20.70
2018-06-29T12:46:10.907Z,20.50
2018-06-29T12:51:40.211Z,20.40
2018-06-29T12:57:09.525Z,20.60
2018-06-29T13:02:38.719Z,20.60
2018-06-29T13:08:08.005Z,21.00
2018-06-29T13:13:37.276Z,21.30
2018-06-29T13:19:06.589Z,21.60
2018-06-29T13:24:35.785Z,21.90
2018-06-29T13:30:05.797Z,22.20
2018-06-29T13:35:34.991Z,22.20
2018-06-29T13:41:04.219Z,22.20
2018-06-29T13:46:33.447Z,22.20
2018-06-29T13:52:02.680Z,22.60
2018-06-29T13:57:31.892Z,22.90
2018-06-29T14:03:01.077Z,23.30
2018-06-29T14:08:30.333Z,23.40
2018-06-29T14:13:59.573Z,23.50
2018-06-29T14:19:28.816Z,23.50
2018-06-29T14:24:57.998Z,23.80
2018-06-29T14:30:27.247Z,23.90
2018-06-29T14:35:56.442Z,23.90
2018-06-29T14:41:25.642Z,23.80
2018-06-29T14:46:55.009Z,23.70
2018-06-29T14:52:24.249Z,23.60
2018-06-29T14:57:53.440Z,23.50
2018-06-29T15:03:22.664Z,23.40
2018-06-29T15:08:51.882Z,23.20
2018-06-29T15:14:21.058Z,23.30
2018-06-29T15:19:50.231Z,23.80
2018-06-29T15:25:19.462Z,24.20
2018-06-29T15:30:48.677Z,23.90
2018-06-29T15:36:17.926Z,24.00
2018-06-29T15:41:47.232Z,24.10
2018-06-29T15:47:16.561Z,24.00
2018-06-29T15:52:45.768Z,23.90
2018-06-29T15:58:15.145Z,23.70
2018-06-29T16:03:44.407Z,23.70
2018-06-29T16:09:13.661Z,23.80
2018-06-29T16:14:42.870Z,23.90
2018-06-29T16:20:12.138Z,23.80
2018-06-29T16:25:41.411Z,23.70
2018-06-29T16:31:10.681Z,23.70
2018-06-29T16:36:39.889Z,23.60
2018-06-29T16:42:10.264Z,23.50
2018-06-29T16:47:39.448Z,23.40
2018-06-29T16:53:08.641Z,23.30
2018-06-29T16:58:37.678Z,23.20
2018-06-29T17:04:06.931Z,23.00
2018-06-29T17:09:36.095Z,23.00
2018-06-29T17:15:05.743Z,22.90
2018-06-29T17:20:34.945Z,22.90
2018-06-29T17:26:04.181Z,23.00
2018-06-29T17:31:33.400Z,23.00
2018-06-29T17:37:02.709Z,23.00
2018-06-29T17:42:31.953Z,22.90
2018-06-29T17:48:01.134Z,22.80
2018-06-29T17:53:30.391Z,22.70
2018-06-29T17:58:59.628Z,22.50
2018-06-29T18:04:28.826Z,22.40
2018-06-29T18:09:58.063Z,22.30
2018-06-29T18:15:27.242Z,22.20
2018-06-29T18:20:56.431Z,22.10
2018-06-29T18:26:25.770Z,22.00
2018-06-29T18:31:55.018Z,21.90
2018-06-29T18:37:24.253Z,21.90
2018-06-29T18:42:53.480Z,21.80
2018-06-29T18:48:22.704Z,21.70
2018-06-29T18:53:51.915Z,21.60
2018-06-29T18:59:21.111Z,21.50
2018-06-29T19:04:50.340Z,21.50
2018-06-29T19:10:19.607Z,21.40
2018-06-29T19:15:48.941Z,21.30
2018-06-29T19:21:18.242Z,21.30
2018-06-29T19:26:47.509Z,21.20
2018-06-29T19:32:16.848Z,21.10
2018-06-29T19:37:46.511Z,21.00
2018-06-29T19:43:15.777Z,20.90
2018-06-29T19:48:45.220Z,20.90
2018-06-29T19:54:14.636Z,20.80
2018-06-29T19:59:44.069Z,20.70
2018-06-29T20:05:13.527Z,20.60
2018-06-29T20:10:42.787Z,20.60
2018-06-29T20:16:12.124Z,20.50
2018-06-29T20:21:41.547Z,20.50
2018-06-29T20:27:10.853Z,20.40
2018-06-29T20:32:40.183Z,20.30
2018-06-29T20:38:09.473Z,20.30
2018-06-29T20:43:38.724Z,20.20
2018-06-29T20:49:07.958Z,20.10
2018-06-29T20:54:37.194Z,20.00
2018-06-29T21:00:07.276Z,19.90
2018-06-29T21:05:36.514Z,19.90
2018-06-29T21:11:05.844Z,19.90
2018-06-29T21:16:35.035Z,19.90
2018-06-29T21:22:04.271Z,19.80
2018-06-29T21:27:33.532Z,19.80
2018-06-29T21:33:02.773Z,19.80
2018-06-29T21:38:32.060Z,19.70
2018-06-29T21:44:01.270Z,19.70
2018-06-29T21:49:30.484Z,19.70
2018-06-29T21:54:59.695Z,19.60
2018-06-29T22:00:34.004Z,19.60
2018-06-29T22:06:03.215Z,19.50
2018-06-29T22:11:32.410Z,19.50
2018-06-29T22:17:01.602Z,19.40
2018-06-29T22:22:30.809Z,19.40
2018-06-29T22:28:00.101Z,19.30
2018-06-29T22:33:29.248Z,19.20
2018-06-29T22:38:58.443Z,19.10
2018-06-29T22:44:27.710Z,19.00
2018-06-29T22:49:56.875Z,18.90
2018-06-29T22:55:26.069Z,18.80
2018-06-29T23:00:55.286Z,18.70
2018-06-29T23:06:25.742Z,18.60
2018-06-29T23:11:54.999Z,18.50
2018-06-29T23:17:24.244Z,18.40
2018-06-29T23:22:53.507Z,18.40
2018-06-29T23:28:22.707Z,18.30
2018-06-29T23:33:51.897Z,18.30
2018-06-29T23:39:21.173Z,18.20
2018-06-29T23:44:50.457Z,18.20
2018-06-29T23:50:19.698Z,18.10
2018-06-29T23:55:48.940Z,18.10
